sensor_id;sensor_type;location;lat;lon;timestamp;pressure;altitude;pressure_sealevel;temperature;humidity
46598;BME280;32318;48.858;8.252;2023-06-10T00:04:49;99788.06;;;20.17;52.48
46598;BME280;32318;48.858;8.252;2023-06-10T00:12:50;99783.84;;;19.74;53.97
46598;BME280;32318;48.858;8.252;2023-06-10T00:20:51;99793.13;;;19.78;54.04
46598;BME280;32318;48.858;8.252;2023-06-10T00:28:55;99786.28;;;19.75;54.29
46598;BME280;32318;48.858;8.252;2023-06-10T00:36:55;99783.94;;;19.55;53.93
46598;BME280;32318;48.858;8.252;2023-06-10T00:44:55;99785.31;;;19.10;54.84
46598;BME280;32318;48.858;8.252;2023-06-10T00:52:55;99775.56;;;18.91;55.53
46598;BME280;32318;48.858;8.252;2023-06-10T01:00:56;99777.31;;;18.85;56.20
46598;BME280;32318;48.858;8.252;2023-06-10T01:17:23;99783.41;;;18.50;56.72
46598;BME280;32318;48.858;8.252;2023-06-10T01:25:24;99769.44;;;18.53;57.15
46598;BME280;32318;48.858;8.252;2023-06-10T01:33:31;99772.59;;;18.50;57.89
46598;BME280;32318;48.858;8.252;2023-06-10T01:41:34;99778.00;;;18.50;57.48
46598;BME280;32318;48.858;8.252;2023-06-10T01:49:35;99789.50;;;18.45;57.80
46598;BME280;32318;48.858;8.252;2023-06-10T01:57:35;99781.91;;;18.54;57.32
46598;BME280;32318;48.858;8.252;2023-06-10T02:05:36;99789.50;;;18.45;57.80
46598;BME280;32318;48.858;8.252;2023-06-10T02:13:38;99792.81;;;18.47;57.66
46598;BME280;32318;48.858;8.252;2023-06-10T02:21:38;99802.50;;;18.37;57.77
46598;BME280;32318;48.858;8.252;2023-06-10T02:29:38;99804.53;;;18.41;57.76
46598;BME280;32318;48.858;8.252;2023-06-10T02:37:39;99820.75;;;18.23;58.65
46598;BME280;32318;48.858;8.252;2023-06-10T02:45:40;99820.00;;;18.15;58.82
46598;BME280;32318;48.858;8.252;2023-06-10T02:53:40;99830.72;;;18.22;58.89
46598;BME280;32318;48.858;8.252;2023-06-10T03:01:41;99839.19;;;18.26;58.70
46598;BME280;32318;48.858;8.252;2023-06-10T03:09:41;99840.47;;;18.23;58.51
46598;BME280;32318;48.858;8.252;2023-06-10T03:17:41;99847.16;;;17.95;59.26
46598;BME280;32318;48.858;8.252;2023-06-10T03:25:42;99850.91;;;17.76;60.01
46598;BME280;32318;48.858;8.252;2023-06-10T03:33:42;99854.34;;;17.58;60.76
46598;BME280;32318;48.858;8.252;2023-06-10T03:41:42;99855.34;;;17.38;61.50
46598;BME280;32318;48.858;8.252;2023-06-10T03:49:43;99855.63;;;17.55;61.56
46598;BME280;32318;48.858;8.252;2023-06-10T03:57:43;99866.19;;;17.56;61.84
46598;BME280;32318;48.858;8.252;2023-06-10T04:05:44;99872.03;;;17.79;61.32
46598;BME280;32318;48.858;8.252;2023-06-10T04:13:44;99873.63;;;17.61;61.93
46598;BME280;32318;48.858;8.252;2023-06-10T04:21:44;99873.88;;;17.85;61.20
46598;BME280;32318;48.858;8.252;2023-06-10T04:29:44;99866.63;;;17.79;61.57
46598;BME280;32318;48.858;8.252;2023-06-10T04:37:45;99879.09;;;17.80;62.32
46598;BME280;32318;48.858;8.252;2023-06-10T04:45:45;99889.84;;;17.86;61.90
46598;BME280;32318;48.858;8.252;2023-06-10T04:53:45;99891.50;;;17.87;62.41
46598;BME280;32318;48.858;8.252;2023-06-10T05:01:46;99890.97;;;18.04;61.66
46598;BME280;32318;48.858;8.252;2023-06-10T05:09:46;99901.88;;;18.16;61.58
46598;BME280;32318;48.858;8.252;2023-06-10T05:17:47;99906.63;;;18.39;61.15
46598;BME280;32318;48.858;8.252;2023-06-10T05:25:47;99909.34;;;18.76;60.79
46598;BME280;32318;48.858;8.252;2023-06-10T05:33:48;99913.69;;;19.26;60.00
46598;BME280;32318;48.858;8.252;2023-06-10T05:41:48;99922.09;;;19.79;58.32
46598;BME280;32318;48.858;8.252;2023-06-10T05:49:48;99924.28;;;20.25;57.17
46598;BME280;32318;48.858;8.252;2023-06-10T05:57:58;99933.56;;;20.52;56.48
46598;BME280;32318;48.858;8.252;2023-06-10T06:05:58;99936.72;;;20.97;55.19
46598;BME280;32318;48.858;8.252;2023-06-10T06:13:59;99928.56;;;21.26;54.00
46598;BME280;32318;48.858;8.252;2023-06-10T06:21:59;99935.75;;;21.61;53.23
46598;BME280;32318;48.858;8.252;2023-06-10T06:30:00;99935.94;;;21.88;52.21
46598;BME280;32318;48.858;8.252;2023-06-10T06:38:00;99941.78;;;22.14;51.50
46598;BME280;32318;48.858;8.252;2023-06-10T06:46:00;99940.63;;;22.27;51.06
46598;BME280;32318;48.858;8.252;2023-06-10T06:54:01;99945.94;;;22.39;51.35
46598;BME280;32318;48.858;8.252;2023-06-10T07:02:02;99940.06;;;22.64;51.02
46598;BME280;32318;48.858;8.252;2023-06-10T07:10:02;99938.50;;;22.68;50.52
46598;BME280;32318;48.858;8.252;2023-06-10T07:18:03;99939.25;;;22.86;50.70
46598;BME280;32318;48.858;8.252;2023-06-10T07:26:03;99936.25;;;23.10;49.84
46598;BME280;32318;48.858;8.252;2023-06-10T07:34:03;99931.69;;;23.15;50.70
46598;BME280;32318;48.858;8.252;2023-06-10T07:42:04;99940.56;;;23.55;50.14
46598;BME280;32318;48.858;8.252;2023-06-10T07:50:05;99938.94;;;23.87;49.42
46598;BME280;32318;48.858;8.252;2023-06-10T07:58:05;99940.38;;;23.94;49.49
46598;BME280;32318;48.858;8.252;2023-06-10T08:06:05;99930.78;;;24.24;49.52
46598;BME280;32318;48.858;8.252;2023-06-10T08:14:06;99946.22;;;24.51;49.48
46598;BME280;32318;48.858;8.252;2023-06-10T08:22:06;99941.50;;;24.79;48.64
46598;BME280;32318;48.858;8.252;2023-06-10T08:30:07;99917.53;;;25.07;47.58
46598;BME280;32318;48.858;8.252;2023-06-10T08:38:08;99924.69;;;25.34;46.48
46598;BME280;32318;48.858;8.252;2023-06-10T08:46:08;99921.50;;;25.58;46.05
46598;BME280;32318;48.858;8.252;2023-06-10T08:54:15;99925.31;;;25.88;45.18
46598;BME280;32318;48.858;8.252;2023-06-10T09:02:19;99930.25;;;26.17;43.44
46598;BME280;32318;48.858;8.252;2023-06-10T09:10:20;99902.34;;;26.14;43.52
46598;BME280;32318;48.858;8.252;2023-06-10T09:18:20;99903.09;;;26.41;42.56
46598;BME280;32318;48.858;8.252;2023-06-10T09:26:27;99907.63;;;26.71;42.56
46598;BME280;32318;48.858;8.252;2023-06-10T09:34:28;99907.03;;;26.95;41.01
46598;BME280;32318;48.858;8.252;2023-06-10T09:42:32;99900.59;;;27.15;40.37
46598;BME280;32318;48.858;8.252;2023-06-10T09:50:33;99894.72;;;27.32;40.85
46598;BME280;32318;48.858;8.252;2023-06-10T09:58:35;99895.25;;;27.39;40.21
46598;BME280;32318;48.858;8.252;2023-06-10T10:06:36;99895.81;;;27.36;40.23
46598;BME280;32318;48.858;8.252;2023-06-10T10:14:39;99884.84;;;27.36;39.42
46598;BME280;32318;48.858;8.252;2023-06-10T10:22:43;99884.22;;;27.50;39.77
46598;BME280;32318;48.858;8.252;2023-06-10T10:30:49;99886.41;;;27.82;38.51
46598;BME280;32318;48.858;8.252;2023-06-10T10:38:50;99896.97;;;27.99;37.90
46598;BME280;32318;48.858;8.252;2023-06-10T10:46:51;99888.13;;;28.02;38.93
46598;BME280;32318;48.858;8.252;2023-06-10T10:54:53;99890.56;;;28.09;38.37
46598;BME280;32318;48.858;8.252;2023-06-10T11:02:58;99887.50;;;28.16;38.00
46598;BME280;32318;48.858;8.252;2023-06-10T11:10:59;99873.78;;;28.16;37.32
46598;BME280;32318;48.858;8.252;2023-06-10T11:18:59;99862.69;;;28.26;37.23
46598;BME280;32318;48.858;8.252;2023-06-10T11:27:16;99869.66;;;28.38;36.89
46598;BME280;32318;48.858;8.252;2023-06-10T11:35:19;99863.25;;;28.47;36.70
46598;BME280;32318;48.858;8.252;2023-06-10T11:43:21;99860.88;;;28.60;35.72
46598;BME280;32318;48.858;8.252;2023-06-10T11:51:25;99852.25;;;28.72;35.86
46598;BME280;32318;48.858;8.252;2023-06-10T11:59:31;99847.28;;;28.74;36.14
46598;BME280;32318;48.858;8.252;2023-06-10T12:07:32;99869.44;;;28.83;35.92
46598;BME280;32318;48.858;8.252;2023-06-10T12:15:32;99850.56;;;28.95;35.95
46598;BME280;32318;48.858;8.252;2023-06-10T12:23:33;99846.19;;;29.13;35.93
46598;BME280;32318;48.858;8.252;2023-06-10T12:31:52;99851.72;;;29.27;35.81
46598;BME280;32318;48.858;8.252;2023-06-10T12:39:52;99843.13;;;29.15;35.53
46598;BME280;32318;48.858;8.252;2023-06-10T12:48:04;99836.56;;;29.49;34.82
46598;BME280;32318;48.858;8.252;2023-06-10T12:56:05;99833.66;;;29.40;34.78
46598;BME280;32318;48.858;8.252;2023-06-10T13:04:06;99824.72;;;29.48;34.44
46598;BME280;32318;48.858;8.252;2023-06-10T13:12:07;99828.84;;;29.65;35.14
46598;BME280;32318;48.858;8.252;2023-06-10T13:20:08;99826.75;;;29.89;34.88
46598;BME280;32318;48.858;8.252;2023-06-10T13:28:09;99814.19;;;29.83;34.59
46598;BME280;32318;48.858;8.252;2023-06-10T13:36:09;99803.34;;;30.06;34.27
46598;BME280;32318;48.858;8.252;2023-06-10T13:44:10;99807.69;;;29.79;33.88
46598;BME280;32318;48.858;8.252;2023-06-10T13:52:10;99799.56;;;30.02;33.48
46598;BME280;32318;48.858;8.252;2023-06-10T14:00:11;99785.47;;;30.17;33.91
46598;BME280;32318;48.858;8.252;2023-06-10T14:08:11;99784.53;;;29.66;34.12
46598;BME280;32318;48.858;8.252;2023-06-10T14:16:12;99783.84;;;29.88;33.61
46598;BME280;32318;48.858;8.252;2023-06-10T14:24:12;99773.25;;;29.96;32.75
46598;BME280;32318;48.858;8.252;2023-06-10T14:32:12;99783.47;;;29.95;32.54
46598;BME280;32318;48.858;8.252;2023-06-10T14:40:12;99774.69;;;30.07;32.66
46598;BME280;32318;48.858;8.252;2023-06-10T14:48:13;99759.19;;;30.11;32.03
46598;BME280;32318;48.858;8.252;2023-06-10T14:56:13;99757.72;;;30.28;32.90
46598;BME280;32318;48.858;8.252;2023-06-10T15:04:13;99758.47;;;30.19;32.00
46598;BME280;32318;48.858;8.252;2023-06-10T15:12:13;99747.94;;;29.80;31.63
46598;BME280;32318;48.858;8.252;2023-06-10T15:20:14;99740.03;;;29.92;31.62
46598;BME280;32318;48.858;8.252;2023-06-10T15:28:14;99731.16;;;29.81;32.61
46598;BME280;32318;48.858;8.252;2023-06-10T15:36:15;99724.53;;;29.82;32.84
46598;BME280;32318;48.858;8.252;2023-06-10T15:44:15;99724.72;;;29.86;31.86
46598;BME280;32318;48.858;8.252;2023-06-10T15:52:15;99720.94;;;29.82;32.76
46598;BME280;32318;48.858;8.252;2023-06-10T16:00:16;99717.69;;;29.80;32.59
46598;BME280;32318;48.858;8.252;2023-06-10T16:08:16;99707.38;;;29.71;32.95
46598;BME280;32318;48.858;8.252;2023-06-10T16:16:16;99710.34;;;29.61;32.69
46598;BME280;32318;48.858;8.252;2023-06-10T16:24:17;99705.75;;;29.42;32.67
46598;BME280;32318;48.858;8.252;2023-06-10T16:32:17;99709.72;;;29.36;33.26
46598;BME280;32318;48.858;8.252;2023-06-10T16:40:17;99708.16;;;29.30;33.17
46598;BME280;32318;48.858;8.252;2023-06-10T16:48:18;99710.78;;;29.21;33.93
46598;BME280;32318;48.858;8.252;2023-06-10T16:56:18;99707.94;;;29.26;33.41
46598;BME280;32318;48.858;8.252;2023-06-10T17:04:18;99719.84;;;29.22;32.50
46598;BME280;32318;48.858;8.252;2023-06-10T17:12:19;99727.19;;;28.93;33.75
46598;BME280;32318;48.858;8.252;2023-06-10T17:20:21;99728.41;;;28.87;33.13
46598;BME280;32318;48.858;8.252;2023-06-10T17:28:21;99733.91;;;28.87;32.19
46598;BME280;32318;48.858;8.252;2023-06-10T17:36:21;99738.50;;;28.73;32.82
46598;BME280;32318;48.858;8.252;2023-06-10T17:44:22;99734.56;;;28.60;33.15
46598;BME280;32318;48.858;8.252;2023-06-10T17:52:24;99746.06;;;28.43;33.49
46598;BME280;32318;48.858;8.252;2023-06-10T18:00:24;99754.88;;;28.21;34.42
46598;BME280;32318;48.858;8.252;2023-06-10T18:08:24;99750.13;;;28.26;34.36
46598;BME280;32318;48.858;8.252;2023-06-10T18:16:25;99751.81;;;27.98;35.43
46598;BME280;32318;48.858;8.252;2023-06-10T18:24:27;99760.69;;;27.90;36.11
46598;BME280;32318;48.858;8.252;2023-06-10T18:32:27;99765.31;;;27.70;36.15
46598;BME280;32318;48.858;8.252;2023-06-10T18:40:27;99770.13;;;27.54;36.68
46598;BME280;32318;48.858;8.252;2023-06-10T18:48:27;99785.09;;;27.32;37.39
46598;BME280;32318;48.858;8.252;2023-06-10T18:56:28;99793.75;;;27.10;38.21
46598;BME280;32318;48.858;8.252;2023-06-10T19:04:29;99800.69;;;26.97;38.77
46598;BME280;32318;48.858;8.252;2023-06-10T19:12:29;99809.63;;;26.68;39.28
46598;BME280;32318;48.858;8.252;2023-06-10T19:20:29;99810.03;;;26.41;40.18
46598;BME280;32318;48.858;8.252;2023-06-10T19:28:29;99827.13;;;26.12;41.18
46598;BME280;32318;48.858;8.252;2023-06-10T19:36:30;99829.59;;;25.88;41.67
46598;BME280;32318;48.858;8.252;2023-06-10T19:44:30;99833.75;;;25.70;42.12
46598;BME280;32318;48.858;8.252;2023-06-10T19:52:30;99850.16;;;25.49;42.78
46598;BME280;32318;48.858;8.252;2023-06-10T20:00:32;99853.09;;;25.27;43.59
46598;BME280;32318;48.858;8.252;2023-06-10T20:08:33;99859.63;;;24.95;44.30
46598;BME280;32318;48.858;8.252;2023-06-10T20:16:34;99871.03;;;24.76;45.08
46598;BME280;32318;48.858;8.252;2023-06-10T20:24:34;99876.94;;;24.63;45.58
46598;BME280;32318;48.858;8.252;2023-06-10T20:32:35;99881.53;;;24.47;46.17
46598;BME280;32318;48.858;8.252;2023-06-10T20:40:35;99890.66;;;24.15;46.80
46598;BME280;32318;48.858;8.252;2023-06-10T20:48:36;99891.59;;;23.98;47.28
46598;BME280;32318;48.858;8.252;2023-06-10T20:56:36;99893.94;;;23.84;47.95
46598;BME280;32318;48.858;8.252;2023-06-10T21:04:36;99891.91;;;23.69;48.49
46598;BME280;32318;48.858;8.252;2023-06-10T21:12:37;99898.22;;;23.42;49.28
46598;BME280;32318;48.858;8.252;2023-06-10T21:20:37;99901.91;;;23.31;49.52
46598;BME280;32318;48.858;8.252;2023-06-10T21:28:37;99907.34;;;23.26;49.45
46598;BME280;32318;48.858;8.252;2023-06-10T21:36:37;99914.16;;;23.28;49.15
46598;BME280;32318;48.858;8.252;2023-06-10T21:44:38;99912.31;;;23.34;49.12
46598;BME280;32318;48.858;8.252;2023-06-10T21:52:38;99920.09;;;23.25;48.98
46598;BME280;32318;48.858;8.252;2023-06-10T22:00:38;99920.06;;;23.20;48.98
46598;BME280;32318;48.858;8.252;2023-06-10T22:08:39;99924.88;;;23.13;49.25
46598;BME280;32318;48.858;8.252;2023-06-10T22:16:44;99926.41;;;23.03;49.64
46598;BME280;32318;48.858;8.252;2023-06-10T22:24:46;99934.31;;;22.83;49.94
46598;BME280;32318;48.858;8.252;2023-06-10T22:32:50;99943.78;;;22.58;50.71
46598;BME280;32318;48.858;8.252;2023-06-10T22:40:50;99933.31;;;22.33;51.31
46598;BME280;32318;48.858;8.252;2023-06-10T22:48:51;99937.06;;;22.27;51.77
46598;BME280;32318;48.858;8.252;2023-06-10T22:56:51;99933.84;;;22.13;52.44
46598;BME280;32318;48.858;8.252;2023-06-10T23:04:52;99940.63;;;22.10;52.63
46598;BME280;32318;48.858;8.252;2023-06-10T23:12:52;99947.63;;;21.89;53.21
46598;BME280;32318;48.858;8.252;2023-06-10T23:20:52;99955.00;;;21.76;53.34
46598;BME280;32318;48.858;8.252;2023-06-10T23:28:54;99969.84;;;21.86;53.34
46598;BME280;32318;48.858;8.252;2023-06-10T23:36:54;99970.59;;;21.98;52.98
46598;BME280;32318;48.858;8.252;2023-06-10T23:44:56;99968.38;;;21.95;52.86
46598;BME280;32318;48.858;8.252;2023-06-10T23:52:56;99968.22;;;21.85;53.01
